createdAt,value
2018-11-11T00:00:24.935Z,5.21
2018-11-11T00:02:54.853Z,5.17
2018-11-11T00:05:24.096Z,5.22
2018-11-11T00:07:53.278Z,5.24
2018-11-11T00:10:22.490Z,5.13
2018-11-11T00:12:51.675Z,5.14
2018-11-11T00:15:20.888Z,5.07
2018-11-11T00:17:50.119Z,4.98
2018-11-11T00:20:19.331Z,4.97
2018-11-11T00:22:48.538Z,5.02
2018-11-11T00:25:17.749Z,5.11
2018-11-11T00:27:46.951Z,5.15
2018-11-11T00:30:17.355Z,5.04
2018-11-11T00:32:46.568Z,5.00
2018-11-11T00:35:15.855Z,4.96
2018-11-11T00:37:45.002Z,4.97
2018-11-11T00:40:15.316Z,4.91
2018-11-11T00:42:44.910Z,4.85
2018-11-11T00:45:14.870Z,4.87
2018-11-11T00:47:44.799Z,4.89
2018-11-11T00:50:14.034Z,4.94
2018-11-11T00:52:43.238Z,5.26
2018-11-11T00:55:15.459Z,5.06
2018-11-11T00:57:45.296Z,5.12
2018-11-11T01:00:16.832Z,5.07
2018-11-11T01:02:46.382Z,4.89
2018-11-11T01:05:15.878Z,4.94
2018-11-11T01:07:45.069Z,4.92
2018-11-11T01:10:15.753Z,4.93
2018-11-11T01:12:45.350Z,4.96
2018-11-11T01:15:15.685Z,4.99
2018-11-11T01:17:44.863Z,4.95
2018-11-11T01:20:15.191Z,4.91
2018-11-11T01:22:44.903Z,4.94
2018-11-11T01:25:16.130Z,4.92
2018-11-11T01:27:45.363Z,4.96
2018-11-11T01:30:14.587Z,5.01
2018-11-11T01:32:43.787Z,5.05
2018-11-11T01:35:14.065Z,5.11
2018-11-11T01:37:43.688Z,5.14
2018-11-11T01:40:13.072Z,5.22
2018-11-11T01:42:42.271Z,5.13
2018-11-11T01:45:14.786Z,5.16
2018-11-11T01:47:44.674Z,5.11
2018-11-11T01:50:14.043Z,5.13
2018-11-11T01:52:43.236Z,5.29
2018-11-11T01:55:13.151Z,5.25
2018-11-11T01:57:42.398Z,5.64
2018-11-11T02:00:14.474Z,5.62
2018-11-11T02:02:44.139Z,5.51
2018-11-11T02:05:13.808Z,5.67
2018-11-11T02:07:44.011Z,5.50
2018-11-11T02:10:13.227Z,5.32
2018-11-11T02:12:43.455Z,5.28
2018-11-11T02:15:13.755Z,5.38
2018-11-11T02:17:42.962Z,5.40
2018-11-11T02:20:14.362Z,5.48
2018-11-11T02:22:44.303Z,5.66
2018-11-11T02:25:13.514Z,5.87
2018-11-11T02:27:42.743Z,5.99
2018-11-11T02:30:14.504Z,5.94
2018-11-11T02:32:44.014Z,6.17
2018-11-11T02:35:13.337Z,5.98
2018-11-11T02:37:42.800Z,5.97
2018-11-11T02:40:15.035Z,5.88
2018-11-11T02:42:44.534Z,5.86
2018-11-11T02:45:14.667Z,5.79
2018-11-11T02:47:43.876Z,5.79
2018-11-11T02:50:14.296Z,5.84
2018-11-11T02:52:43.955Z,5.73
2018-11-11T02:55:13.657Z,5.79
2018-11-11T02:57:43.238Z,5.79
2018-11-11T03:00:21.171Z,5.72
2018-11-11T03:02:50.604Z,5.74
2018-11-11T03:05:20.294Z,5.79
2018-11-11T03:07:49.496Z,5.73
2018-11-11T03:10:19.019Z,5.66
2018-11-11T03:12:49.116Z,5.70
2018-11-11T03:15:18.652Z,5.59
2018-11-11T03:17:47.845Z,5.50
2018-11-11T03:20:17.450Z,5.51
2018-11-11T03:22:46.638Z,5.71
2018-11-11T03:25:16.590Z,5.75
2018-11-11T03:27:47.038Z,5.66
2018-11-11T03:30:17.260Z,5.80
2018-11-11T03:32:46.499Z,5.79
2018-11-11T03:35:15.856Z,5.77
2018-11-11T03:37:45.784Z,5.64
2018-11-11T03:40:18.176Z,5.64
2018-11-11T03:42:47.750Z,5.76
2018-11-11T03:45:18.005Z,5.84
2018-11-11T03:47:48.214Z,5.84
2018-11-11T03:50:17.419Z,5.77
2018-11-11T03:52:46.817Z,5.64
2018-11-11T03:55:16.063Z,5.72
2018-11-11T03:57:45.319Z,5.77
2018-11-11T04:00:15.560Z,5.68
2018-11-11T04:02:44.819Z,5.53
2018-11-11T04:05:15.311Z,5.42
2018-11-11T04:07:45.509Z,5.38
2018-11-11T04:10:16.099Z,5.69
2018-11-11T04:12:45.702Z,5.59
2018-11-11T04:15:16.135Z,5.47
2018-11-11T04:17:45.499Z,5.42
2018-11-11T04:20:16.114Z,5.63
2018-11-11T04:22:45.343Z,5.87
2018-11-11T04:25:15.167Z,5.76
2018-11-11T04:27:44.422Z,5.53
2018-11-11T04:30:14.799Z,5.56
2018-11-11T04:32:44.165Z,5.61
2018-11-11T04:35:13.687Z,5.57
2018-11-11T04:37:42.915Z,5.52
2018-11-11T04:40:13.092Z,5.43
2018-11-11T04:42:42.491Z,5.31
2018-11-11T04:45:14.001Z,5.37
2018-11-11T04:47:43.560Z,5.17
2018-11-11T04:50:13.848Z,4.94
2018-11-11T04:52:43.587Z,5.00
2018-11-11T04:55:12.866Z,4.80
2018-11-11T04:57:42.506Z,4.67
2018-11-11T05:00:12.879Z,4.64
2018-11-11T05:02:42.364Z,4.95
2018-11-11T05:05:12.574Z,4.66
2018-11-11T05:07:42.097Z,4.54
2018-11-11T05:10:11.680Z,4.93
2018-11-11T05:12:40.906Z,4.64
2018-11-11T05:15:11.694Z,4.42
2018-11-11T05:17:40.907Z,4.53
2018-11-11T05:20:11.244Z,4.35
2018-11-11T05:22:40.534Z,4.18
2018-11-11T05:25:11.750Z,4.27
2018-11-11T05:27:41.083Z,4.30
2018-11-11T05:30:11.202Z,4.29
2018-11-11T05:32:40.674Z,4.12
2018-11-11T05:35:10.731Z,4.24
2018-11-11T05:37:40.427Z,4.52
2018-11-11T05:40:11.901Z,4.43
2018-11-11T05:42:41.883Z,4.23
2018-11-11T05:45:12.359Z,4.13
2018-11-11T05:47:41.907Z,4.11
2018-11-11T05:50:12.969Z,4.14
2018-11-11T05:52:42.803Z,4.19
2018-11-11T05:55:12.005Z,4.25
2018-11-11T05:57:41.346Z,4.18
2018-11-11T06:00:14.903Z,4.22
2018-11-11T06:02:44.490Z,4.32
2018-11-11T06:05:14.611Z,4.21
2018-11-11T06:07:43.843Z,4.23
2018-11-11T06:10:14.142Z,4.22
2018-11-11T06:12:43.390Z,4.44
2018-11-11T06:15:13.361Z,4.61
2018-11-11T06:17:42.583Z,4.50
2018-11-11T06:20:15.243Z,4.09
2018-11-11T06:22:44.487Z,3.82
2018-11-11T06:25:13.699Z,4.13
2018-11-11T06:27:42.971Z,3.97
2018-11-11T06:30:12.872Z,3.96
2018-11-11T06:32:42.274Z,3.92
2018-11-11T06:35:12.170Z,4.21
2018-11-11T06:37:41.692Z,4.24
2018-11-11T06:40:12.201Z,4.12
2018-11-11T06:42:41.854Z,3.93
2018-11-11T06:45:13.261Z,3.78
2018-11-11T06:47:43.194Z,3.82
2018-11-11T06:50:13.412Z,3.98
2018-11-11T06:52:43.106Z,4.25
2018-11-11T06:55:12.566Z,4.31
2018-11-11T06:57:41.819Z,4.45
2018-11-11T07:00:13.530Z,4.70
2018-11-11T07:03:00.048Z,5.09
2018-11-11T07:05:29.371Z,5.32
2018-11-11T07:07:58.583Z,5.49
2018-11-11T07:10:28.078Z,5.49
2018-11-11T07:12:57.999Z,5.07
2018-11-11T07:15:27.459Z,5.00
2018-11-11T07:17:56.823Z,5.22
2018-11-11T07:20:26.137Z,5.48
2018-11-11T07:22:55.577Z,6.23
2018-11-11T07:25:24.967Z,9.58
2018-11-11T07:27:54.211Z,12.65
2018-11-11T07:30:23.547Z,13.68
2018-11-11T07:32:53.004Z,13.85
2018-11-11T07:35:22.307Z,12.28
2018-11-11T07:37:51.563Z,9.99
2018-11-11T07:40:20.748Z,7.89
2018-11-11T07:42:49.934Z,7.49
2018-11-11T07:45:19.139Z,6.82
2018-11-11T07:47:48.392Z,6.96
2018-11-11T07:50:17.560Z,6.53
2018-11-11T07:52:46.766Z,6.45
2018-11-11T07:55:15.956Z,6.49
2018-11-11T07:57:45.140Z,6.58
2018-11-11T08:00:14.931Z,6.52
2018-11-11T08:02:44.350Z,6.00
2018-11-11T08:05:13.547Z,6.40
2018-11-11T08:07:42.730Z,6.69
2018-11-11T08:10:29.179Z,6.21
2018-11-11T08:12:58.374Z,6.19
2018-11-11T08:15:27.569Z,6.75
2018-11-11T08:17:57.849Z,7.50
2018-11-11T08:20:27.050Z,7.23
2018-11-11T08:22:56.295Z,7.10
2018-11-11T08:25:25.535Z,7.01
2018-11-11T08:27:54.745Z,7.06
2018-11-11T08:30:23.955Z,7.23
2018-11-11T08:32:53.187Z,7.45
2018-11-11T08:35:22.395Z,7.62
2018-11-11T08:37:51.638Z,8.12
2018-11-11T08:40:20.862Z,8.59
2018-11-11T08:42:50.070Z,10.00
2018-11-11T08:45:19.289Z,10.83
2018-11-11T08:47:48.487Z,11.49
2018-11-11T08:50:17.719Z,12.86
2018-11-11T08:52:46.931Z,12.73
2018-11-11T08:55:16.157Z,12.12
2018-11-11T08:57:45.417Z,11.88
2018-11-11T09:00:15.239Z,11.38
2018-11-11T09:02:44.443Z,10.24
2018-11-11T09:05:13.677Z,9.38
2018-11-11T09:07:42.903Z,9.84
2018-11-11T09:10:18.527Z,9.94
2018-11-11T09:12:47.751Z,10.64
2018-11-11T09:15:16.946Z,10.11
2018-11-11T09:17:46.142Z,10.74
2018-11-11T09:20:16.195Z,11.41
2018-11-11T09:22:45.396Z,11.98
2018-11-11T09:25:14.607Z,11.07
2018-11-11T09:27:43.791Z,11.47
2018-11-11T09:30:14.242Z,12.40
2018-11-11T09:32:43.697Z,13.20
2018-11-11T09:35:12.967Z,13.93
2018-11-11T09:37:42.209Z,15.55
2018-11-11T09:40:12.454Z,15.10
2018-11-11T09:42:41.752Z,14.32
2018-11-11T09:45:12.953Z,14.32
2018-11-11T09:47:42.330Z,14.02
2018-11-11T09:50:13.171Z,13.70
2018-11-11T09:52:42.423Z,13.41
2018-11-11T09:55:12.531Z,13.87
2018-11-11T09:57:41.923Z,14.88
2018-11-11T10:00:18.226Z,14.69
2018-11-11T10:02:52.472Z,14.44
2018-11-11T10:05:41.311Z,14.16
2018-11-11T10:08:47.934Z,13.61
2018-11-11T10:13:31.195Z,13.19
2018-11-11T10:16:09.664Z,13.88
2018-11-11T10:18:43.112Z,13.45
2018-11-11T10:23:22.908Z,13.61
2018-11-11T10:25:57.261Z,15.51
2018-11-11T10:28:36.825Z,18.47
2018-11-11T10:31:12.229Z,20.58
2018-11-11T10:33:45.993Z,21.15
2018-11-11T10:36:22.637Z,21.27
2018-11-11T10:38:58.904Z,20.87
2018-11-11T10:41:33.367Z,20.99
2018-11-11T10:44:04.600Z,19.99
2018-11-11T10:47:05.238Z,20.81
2018-11-11T10:49:40.195Z,23.30
2018-11-11T10:52:10.776Z,28.24
2018-11-11T10:54:40.257Z,26.86
2018-11-11T10:57:09.713Z,26.62
2018-11-11T10:59:39.048Z,25.48
2018-11-11T11:02:13.511Z,25.33
2018-11-11T11:04:48.088Z,28.06
2018-11-11T11:07:17.536Z,25.25
2018-11-11T11:09:46.847Z,24.14
2018-11-11T11:12:16.268Z,24.73
2018-11-11T11:14:45.773Z,24.32
2018-11-11T11:17:15.256Z,23.70
2018-11-11T11:19:44.595Z,23.56
2018-11-11T11:22:13.928Z,22.57
2018-11-11T11:24:43.325Z,22.37
2018-11-11T11:27:12.679Z,22.26
2018-11-11T11:29:41.998Z,22.13
2018-11-11T11:32:11.461Z,22.73
2018-11-11T11:34:40.704Z,22.64
2018-11-11T11:37:10.019Z,22.78
2018-11-11T11:39:39.359Z,22.77
2018-11-11T11:42:08.735Z,21.09
2018-11-11T11:44:38.084Z,21.41
2018-11-11T11:47:07.382Z,21.21
2018-11-11T11:49:36.750Z,21.63
2018-11-11T11:52:06.550Z,21.77
2018-11-11T11:54:35.972Z,19.58
2018-11-11T11:57:05.592Z,21.18
2018-11-11T11:59:34.871Z,21.63
2018-11-11T12:02:04.302Z,24.47
2018-11-11T12:04:34.728Z,23.41
2018-11-11T12:07:04.070Z,23.07
2018-11-11T12:09:33.393Z,21.82
2018-11-11T12:12:02.776Z,22.34
2018-11-11T12:14:32.101Z,20.19
2018-11-11T12:17:01.536Z,19.85
2018-11-11T12:19:30.837Z,21.05
2018-11-11T12:22:00.236Z,21.63
2018-11-11T12:24:29.624Z,22.86
2018-11-11T12:26:58.927Z,21.89
2018-11-11T12:29:28.251Z,21.87
2018-11-11T12:31:57.676Z,21.53
2018-11-11T12:34:27.092Z,21.65
2018-11-11T12:36:56.451Z,20.23
2018-11-11T12:39:25.898Z,20.53
2018-11-11T12:41:55.093Z,19.40
2018-11-11T12:44:24.409Z,19.65
2018-11-11T12:46:53.832Z,20.18
2018-11-11T12:49:23.059Z,18.93
2018-11-11T12:51:52.447Z,19.20
2018-11-11T12:54:21.752Z,19.42
2018-11-11T12:56:51.091Z,19.87
2018-11-11T12:59:20.381Z,19.39
2018-11-11T13:01:49.702Z,20.62
2018-11-11T13:04:19.023Z,19.04
2018-11-11T13:06:48.290Z,19.63
2018-11-11T13:09:17.587Z,20.50
2018-11-11T13:11:46.919Z,20.88
2018-11-11T13:14:16.180Z,23.05
2018-11-11T13:16:45.477Z,21.73
2018-11-11T13:19:14.947Z,20.25
2018-11-11T13:21:44.237Z,20.01
2018-11-11T13:24:13.495Z,19.03
2018-11-11T13:26:42.784Z,20.09
2018-11-11T13:29:12.111Z,19.70
2018-11-11T13:31:41.409Z,21.31
2018-11-11T13:34:10.753Z,19.90
2018-11-11T13:36:40.063Z,18.75
2018-11-11T13:39:12.091Z,18.84
2018-11-11T13:41:41.552Z,19.55
2018-11-11T13:44:10.898Z,20.53
2018-11-11T13:46:40.433Z,20.39
2018-11-11T13:49:09.536Z,20.08
2018-11-11T13:51:38.811Z,18.82
2018-11-11T13:54:08.204Z,19.15
2018-11-11T13:56:37.763Z,19.42
2018-11-11T13:59:07.328Z,17.85
2018-11-11T14:01:36.677Z,17.36
2018-11-11T14:04:05.926Z,16.98
2018-11-11T14:06:35.297Z,16.96
2018-11-11T14:09:07.821Z,17.13
2018-11-11T14:11:37.161Z,17.06
2018-11-11T14:14:07.585Z,17.22
2018-11-11T14:16:37.033Z,17.01
2018-11-11T14:19:07.067Z,16.83
2018-11-11T14:21:36.168Z,17.14
2018-11-11T14:24:05.629Z,17.01
2018-11-11T14:26:35.185Z,16.93
2018-11-11T14:29:04.537Z,16.55
2018-11-11T14:31:33.883Z,16.39
2018-11-11T14:34:03.239Z,16.27
2018-11-11T14:36:32.640Z,16.18
2018-11-11T14:39:01.991Z,15.87
2018-11-11T14:41:31.382Z,15.22
2018-11-11T14:44:00.750Z,14.99
2018-11-11T14:46:30.113Z,14.66
2018-11-11T14:48:59.449Z,14.60
2018-11-11T14:51:28.838Z,14.36
2018-11-11T14:53:58.160Z,14.41
2018-11-11T14:56:27.494Z,14.16
2018-11-11T14:58:56.921Z,14.16
2018-11-11T15:01:26.106Z,13.91
2018-11-11T15:03:55.449Z,13.79
2018-11-11T15:06:24.997Z,13.77
2018-11-11T15:08:54.431Z,13.63
2018-11-11T15:11:24.011Z,13.48
2018-11-11T15:13:53.335Z,13.35
2018-11-11T15:16:23.535Z,13.59
2018-11-11T15:18:52.887Z,13.73
2018-11-11T15:21:22.175Z,13.73
2018-11-11T15:23:51.562Z,13.38
2018-11-11T15:26:20.897Z,13.04
2018-11-11T15:28:50.277Z,12.87
2018-11-11T15:31:19.787Z,12.51
2018-11-11T15:33:49.044Z,12.18
2018-11-11T15:36:18.367Z,11.88
2018-11-11T15:38:47.672Z,12.17
2018-11-11T15:41:17.032Z,11.74
2018-11-11T15:43:46.265Z,11.50
2018-11-11T15:46:15.605Z,11.28
2018-11-11T15:48:44.894Z,11.38
2018-11-11T15:51:14.278Z,10.99
2018-11-11T15:53:43.723Z,10.89
2018-11-11T15:56:13.140Z,10.69
2018-11-11T15:58:42.477Z,10.38
2018-11-11T16:01:11.768Z,10.12
2018-11-11T16:03:41.110Z,9.93
2018-11-11T16:06:10.466Z,9.81
2018-11-11T16:08:39.798Z,9.66
2018-11-11T16:11:09.337Z,9.48
2018-11-11T16:13:38.609Z,9.31
2018-11-11T16:16:08.049Z,9.22
2018-11-11T16:18:37.405Z,9.13
2018-11-11T16:21:06.920Z,9.04
2018-11-11T16:23:36.373Z,8.96
2018-11-11T16:26:05.902Z,8.88
2018-11-11T16:28:35.278Z,8.87
2018-11-11T16:31:05.034Z,8.77
2018-11-11T16:33:34.507Z,8.72
2018-11-11T16:36:04.050Z,8.66
2018-11-11T16:38:33.446Z,8.65
2018-11-11T16:41:02.974Z,8.57
2018-11-11T16:43:32.244Z,8.51
2018-11-11T16:46:01.545Z,8.42
2018-11-11T16:48:30.879Z,8.41
2018-11-11T16:51:00.192Z,8.27
2018-11-11T16:53:29.445Z,8.23
2018-11-11T16:55:58.828Z,8.10
2018-11-11T16:58:28.235Z,8.00
2018-11-11T17:00:57.615Z,8.11
2018-11-11T17:03:26.953Z,8.05
2018-11-11T17:05:56.328Z,8.02
2018-11-11T17:08:25.633Z,8.10
2018-11-11T17:10:55.017Z,7.99
2018-11-11T17:13:24.464Z,7.80
2018-11-11T17:15:55.123Z,7.65
2018-11-11T17:18:24.557Z,7.56
2018-11-11T17:20:54.215Z,7.60
2018-11-11T17:23:23.613Z,7.56
2018-11-11T17:25:53.128Z,7.61
2018-11-11T17:28:22.695Z,7.67
2018-11-11T17:30:52.095Z,7.57
2018-11-11T17:33:21.505Z,7.47
2018-11-11T17:35:51.038Z,7.44
2018-11-11T17:38:20.425Z,7.50
2018-11-11T17:40:49.777Z,7.53
2018-11-11T17:43:19.144Z,7.55
2018-11-11T17:45:48.474Z,7.43
2018-11-11T17:48:17.880Z,7.38
2018-11-11T17:50:47.291Z,7.33
2018-11-11T17:53:16.708Z,7.30
2018-11-11T17:55:46.336Z,7.26
2018-11-11T17:58:15.637Z,7.25
2018-11-11T18:00:44.992Z,7.21
2018-11-11T18:03:14.533Z,7.15
2018-11-11T18:05:43.964Z,7.15
2018-11-11T18:08:13.586Z,7.13
2018-11-11T18:10:43.012Z,6.98
2018-11-11T18:13:12.316Z,6.79
2018-11-11T18:15:41.695Z,6.65
2018-11-11T18:18:11.033Z,6.57
2018-11-11T18:20:40.849Z,6.51
2018-11-11T18:23:10.134Z,6.57
2018-11-11T18:25:39.471Z,6.60
2018-11-11T18:28:08.881Z,6.57
2018-11-11T18:30:38.194Z,6.55
2018-11-11T18:33:07.587Z,6.57
2018-11-11T18:35:36.952Z,6.52
2018-11-11T18:38:06.515Z,6.57
2018-11-11T18:40:35.849Z,6.63
2018-11-11T18:43:05.807Z,6.59
2018-11-11T18:45:35.196Z,6.57
2018-11-11T18:48:04.955Z,6.58
2018-11-11T18:50:34.782Z,6.52
2018-11-11T18:53:04.644Z,6.55
2018-11-11T18:55:33.965Z,6.47
2018-11-11T18:58:03.347Z,7.08
2018-11-11T19:00:33.866Z,6.72
2018-11-11T19:03:03.248Z,6.55
2018-11-11T19:05:32.561Z,6.51
2018-11-11T19:08:01.993Z,6.38
2018-11-11T19:10:32.680Z,6.09
2018-11-11T19:13:03.484Z,5.86
2018-11-11T19:15:32.819Z,5.64
2018-11-11T19:18:02.731Z,5.48
2018-11-11T19:20:32.086Z,5.39
2018-11-11T19:23:01.424Z,5.30
2018-11-11T19:25:31.331Z,5.37
2018-11-11T19:28:01.662Z,5.34
2018-11-11T19:30:32.880Z,5.27
2018-11-11T19:33:02.215Z,5.34
2018-11-11T19:35:31.551Z,5.92
2018-11-11T19:38:00.916Z,5.72
2018-11-11T19:40:30.630Z,5.51
2018-11-11T19:43:00.964Z,5.30
2018-11-11T19:45:31.138Z,5.28
2018-11-11T19:48:00.557Z,5.40
2018-11-11T19:50:30.499Z,5.20
2018-11-11T19:53:00.173Z,5.29
2018-11-11T19:55:30.184Z,4.93
2018-11-11T19:57:59.487Z,4.95
2018-11-11T20:00:30.271Z,4.72
2018-11-11T20:03:00.709Z,4.60
2018-11-11T20:05:30.115Z,4.59
2018-11-11T20:08:00.481Z,4.46
2018-11-11T20:10:30.441Z,4.42
2018-11-11T20:13:00.475Z,4.39
2018-11-11T20:15:31.244Z,4.31
2018-11-11T20:18:00.570Z,4.25
2018-11-11T20:20:32.456Z,4.22
2018-11-11T20:23:01.762Z,4.16
2018-11-11T20:25:31.064Z,4.17
2018-11-11T20:28:00.394Z,4.20
2018-11-11T20:30:31.054Z,4.22
2018-11-11T20:33:00.363Z,4.32
2018-11-11T20:35:30.627Z,4.35
2018-11-11T20:37:59.875Z,4.25
2018-11-11T20:40:29.625Z,4.08
2018-11-11T20:42:59.336Z,4.01
2018-11-11T20:45:30.048Z,4.11
2018-11-11T20:48:00.594Z,3.92
2018-11-11T20:50:31.100Z,3.92
2018-11-11T20:53:01.672Z,3.91
2018-11-11T20:55:31.027Z,3.91
2018-11-11T20:58:00.413Z,3.81
2018-11-11T21:00:35.300Z,3.89
2018-11-11T21:03:04.817Z,4.03
2018-11-11T21:05:34.128Z,3.94
2018-11-11T21:08:03.471Z,3.94
2018-11-11T21:10:32.871Z,3.94
2018-11-11T21:13:02.224Z,3.84
2018-11-11T21:15:32.245Z,3.88
2018-11-11T21:18:01.558Z,3.74
2018-11-11T21:20:32.191Z,3.72
2018-11-11T21:23:01.487Z,3.65
2018-11-11T21:25:30.895Z,3.57
2018-11-11T21:28:00.142Z,3.52
2018-11-11T21:30:30.709Z,3.47
2018-11-11T21:32:59.998Z,3.38
2018-11-11T21:35:29.302Z,3.32
2018-11-11T21:37:58.639Z,3.27
2018-11-11T21:40:28.243Z,3.24
2018-11-11T21:42:57.855Z,3.42
2018-11-11T21:45:28.104Z,3.23
2018-11-11T21:47:57.438Z,3.30
2018-11-11T21:50:27.594Z,3.26
2018-11-11T21:53:17.579Z,3.27
2018-11-11T21:55:46.861Z,3.29
2018-11-11T21:58:16.180Z,3.29
2018-11-11T22:00:45.509Z,3.33
2018-11-11T22:03:14.799Z,3.28
2018-11-11T22:05:44.132Z,3.40
2018-11-11T22:08:13.447Z,3.48
2018-11-11T22:10:42.748Z,3.62
2018-11-11T22:13:12.083Z,3.66
2018-11-11T22:15:41.411Z,3.67
2018-11-11T22:18:10.614Z,3.56
2018-11-11T22:20:39.930Z,3.53
2018-11-11T22:23:09.247Z,3.45
2018-11-11T22:25:38.544Z,3.49
2018-11-11T22:28:07.842Z,3.58
2018-11-11T22:30:37.143Z,3.67
2018-11-11T22:33:06.456Z,3.80
2018-11-11T22:35:35.936Z,3.90
2018-11-11T22:38:05.498Z,4.18
2018-11-11T22:40:34.781Z,4.20
2018-11-11T22:43:04.015Z,4.02
2018-11-11T22:45:33.331Z,3.99
2018-11-11T22:48:02.649Z,3.67
2018-11-11T22:50:31.996Z,3.52
2018-11-11T22:53:01.359Z,3.57
2018-11-11T22:55:30.683Z,3.61
2018-11-11T22:57:59.981Z,3.52
2018-11-11T23:00:30.323Z,3.46
2018-11-11T23:02:59.672Z,3.52
2018-11-11T23:05:28.979Z,3.66
2018-11-11T23:07:58.287Z,3.39
2018-11-11T23:10:27.579Z,3.33
2018-11-11T23:12:56.881Z,3.29
2018-11-11T23:15:26.164Z,3.43
2018-11-11T23:17:55.464Z,3.31
2018-11-11T23:20:24.703Z,3.23
2018-11-11T23:22:53.980Z,3.36
2018-11-11T23:25:23.662Z,3.52
2018-11-11T23:27:52.985Z,3.63
2018-11-11T23:30:23.293Z,3.77
2018-11-11T23:32:52.776Z,4.25
2018-11-11T23:35:22.288Z,4.02
2018-11-11T23:37:51.573Z,3.44
2018-11-11T23:40:20.846Z,3.30
2018-11-11T23:42:50.121Z,3.22
2018-11-11T23:45:19.399Z,3.72
2018-11-11T23:47:48.680Z,3.47
2018-11-11T23:50:19.149Z,3.08
2018-11-11T23:52:48.798Z,2.91
2018-11-11T23:55:19.088Z,2.87
2018-11-11T23:57:48.610Z,2.76
